Time;durP1;ratioP1;P1;durP2;ratioP2;P2;SDS_P1;SDS_P2;PMS_P1;PMS_P2;Temp;Humidity;BMP_temperature;BMP_pressure;BME280_temperature;BME280_humidity;BME280_pressure;Samples;Min_cycle;Max_cycle;Signal;HPM_P1;HPM_P2
2021/03/15 00:03:15;;;;;;;6.53;2.85;;;4.50;99.90;;;;;;12582778;28;20056;-89
2021/03/15 00:09:29;;;;;;;8.95;3.72;;;4.30;99.90;;;;;;12607546;28;20113;-88
2021/03/15 00:15:31;;;;;;;7.80;3.63;;;4.30;99.90;;;;;;12587812;28;20047;-87
2021/03/15 00:21:33;;;;;;;7.93;3.75;;;4.30;99.90;;;;;;12591520;28;20058;-88
2021/03/15 00:27:35;;;;;;;8.63;3.72;;;4.40;99.90;;;;;;12583986;28;20112;-89
2021/03/15 00:33:36;;;;;;;11.60;4.28;;;4.40;99.90;;;;;;12590136;28;20389;-87
2021/03/15 00:39:52;;;;;;;8.35;3.95;;;4.40;99.90;;;;;;12589985;28;20058;-89
2021/03/15 00:45:54;;;;;;;10.75;4.38;;;4.40;99.90;;;;;;12588402;28;20044;-89
2021/03/15 00:51:55;;;;;;;10.60;5.00;;;4.20;99.90;;;;;;12585972;28;20064;-89
2021/03/15 00:57:57;;;;;;;9.30;4.75;;;4.10;99.90;;;;;;12589732;28;20052;-89
2021/03/15 01:03:58;;;;;;;8.18;4.07;;;4.30;99.90;;;;;;12591453;28;20500;-87
2021/03/15 01:10:13;;;;;;;8.52;4.22;;;4.30;99.90;;;;;;12594138;28;20040;-87
2021/03/15 01:16:14;;;;;;;10.20;4.72;;;4.20;99.90;;;;;;12591121;28;20424;-88
2021/03/15 01:22:15;;;;;;;9.18;4.72;;;4.30;99.90;;;;;;12581088;28;20131;-88
2021/03/15 01:28:19;;;;;;;9.75;4.70;;;4.20;99.90;;;;;;12593926;28;20040;-88
2021/03/15 01:34:21;;;;;;;8.48;5.00;;;4.20;99.90;;;;;;12591193;28;20166;-89
2021/03/15 01:40:41;;;;;;;7.63;5.07;;;4.30;99.90;;;;;;12607515;28;20344;-88
2021/03/15 01:46:42;;;;;;;10.55;4.95;;;4.40;99.90;;;;;;12586190;28;20410;-87
2021/03/15 01:52:44;;;;;;;7.90;5.35;;;4.50;99.90;;;;;;12589260;28;20048;-88
2021/03/15 01:58:45;;;;;;;9.45;4.82;;;4.40;99.90;;;;;;12592340;28;20075;-88
2021/03/15 02:04:47;;;;;;;7.25;4.38;;;4.40;99.90;;;;;;12608568;28;20040;-87
2021/03/15 02:11:09;;;;;;;6.33;4.50;;;4.30;99.90;;;;;;12595002;28;20543;-88
2021/03/15 02:17:17;;;;;;;9.23;5.18;;;4.40;99.90;;;;;;12586642;28;20139;-88
2021/03/15 02:23:33;;;;;;;10.15;5.82;;;4.40;99.90;;;;;;12587817;28;20048;-88
2021/03/15 02:29:56;;;;;;;10.93;4.82;;;4.40;99.90;;;;;;12591322;28;20565;-88
2021/03/15 02:36:01;;;;;;;8.38;4.55;;;4.30;99.90;;;;;;12593757;28;20061;-88
2021/03/15 02:42:06;;;;;;;9.18;4.97;;;4.30;99.90;;;;;;12570244;28;20056;-88
2021/03/15 02:48:08;;;;;;;;;;;4.30;99.90;;;;;;12571603;28;20531;-87
2021/03/15 02:54:12;;;;;;;8.52;6.07;;;4.30;99.90;;;;;;12597849;28;19924;-88
2021/03/15 03:00:15;;;;;;;9.63;6.10;;;4.30;99.90;;;;;;12596554;28;20559;-89
2021/03/15 03:06:19;;;;;;;9.80;6.47;;;4.40;99.90;;;;;;12588519;28;20075;-88
2021/03/15 03:12:22;;;;;;;11.80;6.70;;;4.40;99.90;;;;;;12587589;28;20554;-87
2021/03/15 03:18:25;;;;;;;8.60;5.95;;;4.40;99.90;;;;;;12593880;28;20160;-87
2021/03/15 03:24:28;;;;;;;10.95;6.05;;;4.40;99.90;;;;;;12591410;28;20109;-87
2021/03/15 03:30:37;;;;;;;8.80;5.25;;;4.40;99.90;;;;;;12598413;28;20545;-87
2021/03/15 03:36:38;;;;;;;8.80;5.43;;;4.30;99.90;;;;;;12616490;28;20167;-87
2021/03/15 03:42:40;;;;;;;10.32;5.97;;;4.20;99.90;;;;;;12595461;28;20044;-87
2021/03/15 03:48:42;;;;;;;10.07;5.80;;;4.30;99.90;;;;;;12593541;28;20059;-87
2021/03/15 03:54:48;;;;;;;10.60;5.70;;;4.20;99.90;;;;;;12592390;28;20397;-87
2021/03/15 04:00:54;;;;;;;9.13;5.63;;;4.30;99.90;;;;;;12589378;28;20044;-89
2021/03/15 04:06:56;;;;;;;7.88;4.85;;;4.20;99.90;;;;;;12590183;28;20068;-87
2021/03/15 04:13:09;;;;;;;9.18;5.25;;;4.20;99.90;;;;;;12592398;28;20519;-86
2021/03/15 04:19:11;;;;;;;8.32;5.47;;;4.30;99.90;;;;;;12594368;28;20052;-88
2021/03/15 04:25:14;;;;;;;8.07;5.13;;;4.10;99.90;;;;;;12591294;28;20044;-88
2021/03/15 04:31:16;;;;;;;8.15;5.95;;;4.10;99.90;;;;;;12593716;28;20746;-87
2021/03/15 04:37:18;;;;;;;9.23;6.15;;;4.20;99.90;;;;;;12611450;28;20079;-88
2021/03/15 04:43:21;;;;;;;9.07;6.05;;;4.20;99.90;;;;;;12586492;28;20096;-88
2021/03/15 04:49:25;;;;;;;8.77;6.38;;;4.10;99.90;;;;;;12595919;28;20135;-88
2021/03/15 04:55:26;;;;;;;8.35;6.30;;;4.20;99.90;;;;;;12626059;28;20036;-89
2021/03/15 05:01:30;;;;;;;9.60;6.65;;;4.20;99.90;;;;;;12648313;28;20036;-89
2021/03/15 05:07:32;;;;;;;10.65;6.82;;;4.10;99.90;;;;;;12648095;28;20054;-88
2021/03/15 05:13:34;;;;;;;10.48;7.28;;;4.10;99.90;;;;;;12646964;28;20082;-87
2021/03/15 05:19:39;;;;;;;13.48;8.38;;;4.10;99.90;;;;;;12660115;28;20100;-87
2021/03/15 05:25:44;;;;;;;13.57;8.17;;;4.00;99.90;;;;;;12646612;28;20040;-87
2021/03/15 05:31:47;;;;;;;14.60;9.52;;;4.00;99.90;;;;;;12669021;28;20040;-87
2021/03/15 05:37:49;;;;;;;14.77;9.60;;;4.00;99.90;;;;;;12639306;28;20055;-88
2021/03/15 05:44:28;;;;;;;11.82;8.25;;;4.00;99.90;;;;;;12631275;28;20039;-88
2021/03/15 05:50:35;;;;;;;14.70;9.25;;;4.00;99.90;;;;;;12639360;28;20114;-88
2021/03/15 05:57:12;;;;;;;14.63;9.10;;;4.00;99.90;;;;;;12643629;28;20097;-86
2021/03/15 06:03:40;;;;;;;13.75;9.18;;;4.00;99.90;;;;;;12604208;28;20140;-88
2021/03/15 06:10:01;;;;;;;16.10;9.18;;;4.00;99.90;;;;;;12587483;28;20420;-86
2021/03/15 06:16:04;;;;;;;13.23;8.43;;;4.00;99.90;;;;;;12593999;28;20083;-85
2021/03/15 06:22:08;;;;;;;13.55;8.90;;;4.00;99.90;;;;;;12593716;28;20044;-85
2021/03/15 06:28:10;;;;;;;15.05;8.88;;;3.90;99.90;;;;;;12617423;28;20517;-85
2021/03/15 06:34:14;;;;;;;15.52;9.73;;;4.10;99.90;;;;;;12595469;28;20052;-86
2021/03/15 06:40:18;;;;;;;15.35;9.73;;;4.10;99.90;;;;;;12604596;28;20076;-86
2021/03/15 06:46:20;;;;;;;16.13;9.07;;;4.20;99.90;;;;;;12605115;28;20113;-86
2021/03/15 06:52:22;;;;;;;16.48;9.65;;;4.30;99.90;;;;;;12601227;28;20060;-87
2021/03/15 06:58:32;;;;;;;16.30;9.43;;;4.30;99.90;;;;;;12596812;28;20087;-87
2021/03/15 07:04:33;;;;;;;13.70;9.13;;;4.30;99.90;;;;;;12593649;28;20036;-86
2021/03/15 07:10:35;;;;;;;15.32;9.07;;;4.50;99.90;;;;;;12573144;28;20112;-86
2021/03/15 07:16:36;;;;;;;14.52;9.18;;;4.80;99.90;;;;;;12605328;28;20150;-85
2021/03/15 07:22:44;;;;;;;14.88;8.75;;;4.80;99.90;;;;;;12589636;28;20070;-86
2021/03/15 07:28:47;;;;;;;15.68;9.13;;;4.90;99.90;;;;;;12600212;28;20491;-86
2021/03/15 07:34:48;;;;;;;16.17;8.70;;;5.00;99.90;;;;;;12601599;28;20064;-87
2021/03/15 07:40:49;;;;;;;15.75;8.55;;;5.10;99.90;;;;;;12598942;28;20456;-86
2021/03/15 07:46:53;;;;;;;13.80;7.57;;;5.10;99.90;;;;;;12594103;28;20462;-87
2021/03/15 07:52:55;;;;;;;11.95;6.53;;;5.10;99.90;;;;;;12598888;28;20059;-86
2021/03/15 07:58:57;;;;;;;14.18;6.50;;;5.40;99.90;;;;;;12599480;28;20091;-86
2021/03/15 08:05:03;;;;;;;11.88;6.00;;;5.40;99.90;;;;;;12588530;28;20040;-85
2021/03/15 08:11:07;;;;;;;14.23;6.45;;;5.40;99.90;;;;;;12591370;28;20044;-84
2021/03/15 08:17:11;;;;;;;14.15;6.50;;;5.30;99.90;;;;;;12590903;28;20055;-83
2021/03/15 08:23:15;;;;;;;13.38;5.88;;;5.20;99.90;;;;;;12590083;28;20077;-85
2021/03/15 08:29:17;;;;;;;16.07;6.10;;;5.30;99.90;;;;;;12571678;28;20048;-84
2021/03/15 08:35:20;;;;;;;10.13;5.32;;;5.40;99.90;;;;;;12586492;28;20039;-85
2021/03/15 08:41:23;;;;;;;8.77;4.35;;;5.70;99.90;;;;;;12590409;28;20224;-85
2021/03/15 08:47:47;;;;;;;10.07;4.53;;;5.90;99.90;;;;;;12590704;28;20044;-84
2021/03/15 08:53:49;;;;;;;12.32;4.07;;;5.90;99.90;;;;;;12584070;28;20415;-85
2021/03/15 08:59:50;;;;;;;11.30;3.88;;;5.90;99.90;;;;;;12584830;28;20044;-84
2021/03/15 09:05:52;;;;;;;10.82;4.15;;;6.10;99.90;;;;;;12590531;28;20089;-84
2021/03/15 09:11:55;;;;;;;15.85;4.10;;;6.30;99.90;;;;;;12589865;28;20048;-85
2021/03/15 09:17:56;;;;;;;12.52;3.97;;;6.10;99.90;;;;;;12574419;28;20135;-85
2021/03/15 09:24:00;;;;;;;19.02;4.15;;;6.10;99.90;;;;;;12607902;28;20055;-85
2021/03/15 09:30:30;;;;;;;15.38;4.20;;;6.10;99.90;;;;;;12592344;28;20101;-86
2021/03/15 09:36:31;;;;;;;17.80;4.15;;;6.10;99.90;;;;;;12589530;28;20044;-85
2021/03/15 09:42:39;;;;;;;17.85;4.07;;;6.10;99.90;;;;;;12593366;28;20131;-85
2021/03/15 09:48:40;;;;;;;12.60;3.78;;;6.40;99.90;;;;;;12596060;28;20148;-85
2021/03/15 09:54:48;;;;;;;11.55;4.10;;;6.40;99.90;;;;;;12613903;28;20047;-86
2021/03/15 10:00:54;;;;;;;15.40;4.07;;;6.40;99.90;;;;;;12601831;28;20044;-85
2021/03/15 10:06:56;;;;;;;16.90;4.10;;;6.20;99.90;;;;;;12600349;28;20056;-85
2021/03/15 10:13:06;;;;;;;12.77;3.13;;;6.00;99.90;;;;;;12585592;28;21221;-85
2021/03/15 10:19:21;;;;;;;17.63;4.03;;;5.80;99.90;;;;;;12620335;28;20324;-85
2021/03/15 10:25:23;;;;;;;11.70;3.55;;;5.80;99.90;;;;;;12596365;28;20071;-85
2021/03/15 10:31:24;;;;;;;9.15;2.60;;;6.30;99.90;;;;;;12599582;28;20035;-84
2021/03/15 10:37:31;;;;;;;9.90;2.58;;;6.70;99.90;;;;;;12611405;28;20464;-85
2021/03/15 10:43:35;;;;;;;9.95;2.00;;;7.40;99.90;;;;;;12595780;28;20059;-85
2021/03/15 10:49:36;;;;;;;9.10;2.17;;;7.40;99.90;;;;;;12588167;28;20040;-85
2021/03/15 10:55:38;;;;;;;6.32;1.58;;;8.00;99.90;;;;;;12594753;28;20517;-86
2021/03/15 11:01:39;;;;;;;7.10;1.58;;;8.00;99.90;;;;;;12587795;28;20044;-85
2021/03/15 11:07:42;;;;;;;9.93;2.40;;;8.00;99.90;;;;;;12616876;28;20323;-85
2021/03/15 11:13:49;;;;;;;7.43;1.40;;;7.90;99.90;;;;;;12585963;28;20104;-85
2021/03/15 11:19:52;;;;;;;6.63;1.70;;;7.60;99.90;;;;;;12600612;28;20048;-85
2021/03/15 11:26:13;;;;;;;9.15;1.77;;;7.30;99.90;;;;;;12596989;28;20122;-85
2021/03/15 11:32:14;;;;;;;8.57;1.98;;;7.30;99.90;;;;;;12611327;28;20416;-86
2021/03/15 11:38:21;;;;;;;10.00;1.85;;;7.10;99.90;;;;;;12574117;28;20048;-86
2021/03/15 11:44:22;;;;;;;5.18;1.30;;;7.10;99.90;;;;;;12604163;28;20550;-85
2021/03/15 11:50:25;;;;;;;4.30;1.45;;;7.60;99.90;;;;;;12584864;28;20161;-86
2021/03/15 11:56:26;;;;;;;7.05;1.40;;;7.40;99.90;;;;;;12594483;28;20083;-86
2021/03/15 12:02:29;;;;;;;5.78;1.00;;;7.20;99.90;;;;;;12551745;28;20048;-87
2021/03/15 12:08:32;;;;;;;7.25;1.63;;;7.20;99.90;;;;;;12560469;28;20146;-86
2021/03/15 12:14:33;;;;;;;5.22;0.90;;;7.20;99.90;;;;;;12529376;28;20091;-86
2021/03/15 12:20:36;;;;;;;8.25;1.20;;;7.30;99.90;;;;;;12551416;28;20682;-86
2021/03/15 12:26:38;;;;;;;12.40;2.08;;;7.80;99.90;;;;;;12521495;28;20578;-86
2021/03/15 12:32:40;;;;;;;8.20;1.30;;;8.40;99.90;;;;;;12534523;28;20439;-86
2021/03/15 12:38:42;;;;;;;6.43;1.10;;;8.70;99.90;;;;;;12533868;28;20169;-85
2021/03/15 12:44:44;;;;;;;6.65;1.25;;;9.10;99.90;;;;;;12534199;28;20080;-86
2021/03/15 12:50:46;;;;;;;7.47;1.45;;;9.00;99.90;;;;;;12528863;28;20045;-86
2021/03/15 12:56:49;;;;;;;9.15;1.63;;;9.20;99.90;;;;;;12511848;28;20049;-86
2021/03/15 13:02:52;;;;;;;11.75;1.83;;;8.80;99.90;;;;;;12531138;28;20409;-85
2021/03/15 13:08:54;;;;;;;10.40;1.35;;;7.50;99.90;;;;;;12537593;28;20139;-85
2021/03/15 13:14:55;;;;;;;9.50;2.08;;;6.60;99.90;;;;;;12538338;28;20504;-85
2021/03/15 13:20:57;;;;;;;7.85;1.52;;;6.40;99.90;;;;;;12539918;28;20055;-84
2021/03/15 13:26:59;;;;;;;8.13;1.98;;;6.70;99.90;;;;;;12536218;28;20064;-85
2021/03/15 13:33:03;;;;;;;9.07;1.83;;;7.10;99.90;;;;;;12541067;28;20095;-84
2021/03/15 13:39:08;;;;;;;14.65;2.03;;;7.20;99.90;;;;;;12548064;28;20541;-85
2021/03/15 13:45:10;;;;;;;12.10;1.67;;;7.20;99.90;;;;;;12560355;28;20097;-86
2021/03/15 13:51:12;;;;;;;12.48;2.38;;;7.30;99.90;;;;;;12533623;28;20457;-86
2021/03/15 13:57:13;;;;;;;9.82;1.73;;;8.00;99.90;;;;;;12542028;28;20150;-85
2021/03/15 14:03:15;;;;;;;13.55;1.83;;;8.30;99.90;;;;;;12531229;28;20162;-86
2021/03/15 14:09:17;;;;;;;15.85;2.45;;;8.40;99.90;;;;;;12537352;28;20136;-85
2021/03/15 14:15:19;;;;;;;14.93;1.75;;;8.20;99.90;;;;;;12536234;28;20044;-85
2021/03/15 14:21:21;;;;;;;18.10;2.08;;;7.90;99.90;;;;;;12521895;28;20059;-85
2021/03/15 14:27:22;;;;;;;12.95;1.60;;;7.80;99.90;;;;;;12536063;28;20423;-85
2021/03/15 14:33:24;;;;;;;17.90;3.35;;;7.60;99.90;;;;;;12567166;28;20051;-85
2021/03/15 14:39:26;;;;;;;13.07;2.33;;;7.60;99.90;;;;;;12551212;28;20577;-85
2021/03/15 14:45:27;;;;;;;13.07;1.90;;;7.50;99.90;;;;;;12562322;28;20094;-85
2021/03/15 14:51:29;;;;;;;7.43;1.48;;;7.60;99.90;;;;;;12546990;28;20067;-85
2021/03/15 14:57:30;;;;;;;8.80;1.98;;;7.40;99.90;;;;;;12544243;28;20075;-85
2021/03/15 15:03:31;;;;;;;14.07;2.63;;;7.70;99.90;;;;;;12587545;28;20040;-85
2021/03/15 15:09:33;;;;;;;11.52;2.22;;;7.60;99.90;;;;;;12592493;28;20236;-86
2021/03/15 15:15:34;;;;;;;10.15;1.45;;;7.60;99.90;;;;;;12592315;28;20055;-85
2021/03/15 15:21:45;;;;;;;12.35;2.05;;;7.50;99.90;;;;;;12589499;28;20484;-85
2021/03/15 15:27:46;;;;;;;12.93;1.92;;;7.40;99.90;;;;;;12591407;28;20052;-86
2021/03/15 15:33:47;;;;;;;10.65;2.10;;;7.30;99.90;;;;;;12594131;28;20526;-85
2021/03/15 15:39:49;;;;;;;10.50;1.75;;;7.20;99.90;;;;;;12588987;28;20450;-86
2021/03/15 15:45:50;;;;;;;10.70;1.98;;;6.90;99.90;;;;;;12588251;28;20064;-85
2021/03/15 15:51:54;;;;;;;9.82;1.70;;;6.60;99.90;;;;;;12591234;28;20070;-86
2021/03/15 15:57:56;;;;;;;9.57;1.73;;;6.90;99.90;;;;;;12597734;28;20139;-86
2021/03/15 16:03:57;;;;;;;12.43;1.70;;;7.00;99.90;;;;;;12592714;28;20051;-86
2021/03/15 16:09:59;;;;;;;11.07;1.73;;;6.90;99.90;;;;;;12597321;28;20155;-85
2021/03/15 16:16:00;;;;;;;13.10;1.95;;;6.90;99.90;;;;;;12585918;28;20084;-86
2021/03/15 16:22:08;;;;;;;14.50;2.55;;;7.00;99.90;;;;;;12588611;28;20038;-85
2021/03/15 16:28:10;;;;;;;17.75;2.10;;;6.80;99.90;;;;;;12590459;28;20051;-86
2021/03/15 16:34:11;;;;;;;9.60;1.95;;;6.60;99.90;;;;;;12591599;28;20515;-85
2021/03/15 16:40:13;;;;;;;10.30;2.10;;;6.40;99.90;;;;;;12580177;28;20142;-85
2021/03/15 16:46:15;;;;;;;20.25;2.58;;;6.20;99.90;;;;;;12590112;28;20135;-85
2021/03/15 16:52:17;;;;;;;19.15;2.60;;;6.20;99.90;;;;;;12583607;28;20041;-85
2021/03/15 16:58:18;;;;;;;17.80;2.22;;;6.20;99.90;;;;;;12578652;28;20075;-85
2021/03/15 17:04:20;;;;;;;14.10;1.65;;;6.30;99.90;;;;;;12587328;28;20056;-85
2021/03/15 17:10:21;;;;;;;12.95;3.75;;;6.30;99.90;;;;;;12561947;28;20484;-85
2021/03/15 17:16:22;;;;;;;15.40;1.98;;;6.30;99.90;;;;;;12563807;28;20661;-85
2021/03/15 17:22:25;;;;;;;14.48;2.00;;;6.40;99.90;;;;;;12558683;28;20094;-85
2021/03/15 17:28:26;;;;;;;13.73;3.20;;;6.30;99.90;;;;;;12589140;28;20064;-86
2021/03/15 17:34:27;;;;;;;15.45;2.40;;;6.30;99.90;;;;;;12584242;28;20048;-84
2021/03/15 17:40:29;;;;;;;17.00;2.95;;;6.30;99.90;;;;;;12601270;28;20575;-85
2021/03/15 17:46:30;;;;;;;20.15;2.85;;;6.30;99.90;;;;;;12588361;28;20143;-85
2021/03/15 17:52:31;;;;;;;22.35;3.10;;;6.30;99.90;;;;;;12585621;28;20044;-84
2021/03/15 17:58:33;;;;;;;20.83;3.00;;;6.20;99.90;;;;;;12589609;28;20208;-83
2021/03/15 18:04:34;;;;;;;29.67;4.05;;;5.90;99.90;;;;;;12597230;28;20047;-84
2021/03/15 18:10:36;;;;;;;13.02;3.17;;;5.80;99.90;;;;;;12598791;28;20051;-84
2021/03/15 18:16:38;;;;;;;14.45;2.80;;;5.80;99.90;;;;;;12601521;28;21260;-83
2021/03/15 18:22:41;;;;;;;10.27;1.85;;;5.70;99.90;;;;;;12606366;28;20047;-83
2021/03/15 18:28:46;;;;;;;8.82;2.00;;;5.10;99.90;;;;;;12588760;28;20063;-84
2021/03/15 18:34:49;;;;;;;20.20;2.47;;;4.90;99.90;;;;;;12589357;28;20075;-84
2021/03/15 18:40:51;;;;;;;15.15;2.42;;;4.80;99.90;;;;;;12572312;28;20047;-85
2021/03/15 18:46:53;;;;;;;20.35;3.78;;;4.80;99.90;;;;;;12578827;28;20052;-84
2021/03/15 18:52:55;;;;;;;17.70;4.10;;;4.90;99.90;;;;;;12568041;28;20052;-85
2021/03/15 18:58:57;;;;;;;20.60;5.00;;;5.00;99.90;;;;;;12579712;28;20150;-84
2021/03/15 19:04:58;;;;;;;19.92;3.75;;;5.10;99.90;;;;;;12589361;28;20048;-84
2021/03/15 19:10:59;;;;;;;20.98;4.13;;;5.20;99.90;;;;;;12585055;28;20076;-84
2021/03/15 19:17:02;;;;;;;19.50;3.60;;;5.20;99.90;;;;;;12581091;28;20044;-85
2021/03/15 19:23:04;;;;;;;16.00;3.38;;;5.30;99.90;;;;;;12575954;28;20056;-85
2021/03/15 19:29:06;;;;;;;20.15;3.50;;;5.40;99.90;;;;;;12587186;28;20480;-84
2021/03/15 19:35:08;;;;;;;22.15;3.65;;;5.40;99.90;;;;;;12586740;28;20054;-84
2021/03/15 19:41:09;;;;;;;20.35;3.13;;;5.50;99.90;;;;;;12584481;28;20100;-85
2021/03/15 19:47:11;;;;;;;19.30;3.25;;;5.50;99.90;;;;;;12545926;28;20044;-84
2021/03/15 19:53:12;;;;;;;21.33;4.10;;;5.50;99.90;;;;;;12607829;28;20048;-85
2021/03/15 19:59:14;;;;;;;20.00;2.63;;;5.40;99.90;;;;;;12588258;28;20316;-84
2021/03/15 20:05:16;;;;;;;21.88;3.63;;;5.50;99.90;;;;;;12603397;28;20124;-85
2021/03/15 20:11:18;;;;;;;18.42;2.97;;;5.40;99.90;;;;;;12575729;28;20636;-84
2021/03/15 20:17:19;;;;;;;18.35;2.95;;;5.40;99.90;;;;;;12578709;28;20052;-84
2021/03/15 20:23:22;;;;;;;18.80;2.67;;;5.30;99.90;;;;;;12585732;28;20126;-85
2021/03/15 20:29:23;;;;;;;15.20;3.60;;;5.40;99.90;;;;;;12592494;28;20439;-85
2021/03/15 20:35:25;;;;;;;15.95;2.50;;;5.30;99.90;;;;;;12582898;28;20490;-84
2021/03/15 20:41:26;;;;;;;17.13;3.03;;;5.30;99.90;;;;;;12577955;28;20044;-84
2021/03/15 20:47:27;;;;;;;16.85;2.58;;;5.30;99.90;;;;;;12596039;28;20059;-85
2021/03/15 20:53:29;;;;;;;10.68;2.53;;;5.20;99.90;;;;;;12591006;28;20056;-85
2021/03/15 20:59:30;;;;;;;16.65;2.88;;;5.20;99.90;;;;;;12594449;28;20047;-84
2021/03/15 21:05:34;;;;;;;23.38;3.00;;;5.10;99.90;;;;;;12588842;28;20441;-85
2021/03/15 21:11:35;;;;;;;18.58;2.40;;;5.00;99.90;;;;;;12586680;28;20641;-85
2021/03/15 21:17:38;;;;;;;17.20;2.58;;;5.00;99.90;;;;;;12588954;28;20148;-84
2021/03/15 21:23:39;;;;;;;15.57;2.55;;;4.90;99.90;;;;;;12577404;28;20043;-84
2021/03/15 21:29:41;;;;;;;22.65;3.47;;;4.80;99.90;;;;;;12597043;28;20404;-83
2021/03/15 21:35:43;;;;;;;17.20;2.83;;;4.80;99.90;;;;;;12598535;28;20644;-84
2021/03/15 21:41:44;;;;;;;17.38;3.63;;;4.80;99.90;;;;;;12603351;28;20052;-84
2021/03/15 21:48:02;;;;;;;23.83;3.13;;;4.70;99.90;;;;;;12593153;28;20407;-84
2021/03/15 21:54:04;;;;;;;25.27;3.20;;;4.70;99.90;;;;;;12619304;28;20048;-84
2021/03/15 22:00:11;;;;;;;21.85;2.60;;;4.60;99.90;;;;;;12608952;28;20153;-84
2021/03/15 22:06:13;;;;;;;22.77;3.20;;;4.70;99.90;;;;;;12608787;28;20241;-84
2021/03/15 22:12:14;;;;;;;13.60;2.45;;;4.60;99.90;;;;;;12611167;28;20090;-85
2021/03/15 22:18:15;;;;;;;20.65;3.22;;;4.60;99.90;;;;;;12591446;28;20131;-84
2021/03/15 22:24:17;;;;;;;15.35;2.30;;;4.40;99.90;;;;;;12588920;28;20039;-84
2021/03/15 22:30:19;;;;;;;16.77;2.50;;;4.40;99.90;;;;;;12592480;28;20367;-84
2021/03/15 22:36:20;;;;;;;22.65;3.25;;;4.30;99.90;;;;;;12604942;28;20550;-84
2021/03/15 22:42:22;;;;;;;21.83;2.67;;;4.30;99.90;;;;;;12590927;28;20055;-84
2021/03/15 22:48:23;;;;;;;19.35;2.80;;;4.20;99.90;;;;;;12612018;28;20044;-84
2021/03/15 22:54:24;;;;;;;16.60;2.88;;;4.30;99.90;;;;;;12636366;28;20059;-84
2021/03/15 23:00:27;;;;;;;23.10;3.38;;;4.20;99.90;;;;;;12630801;28;20048;-84
2021/03/15 23:06:29;;;;;;;16.45;2.63;;;4.30;99.90;;;;;;12644814;28;20117;-85
2021/03/15 23:12:30;;;;;;;14.57;4.15;;;4.30;99.90;;;;;;12652507;28;20040;-85
2021/03/15 23:18:31;;;;;;;27.20;3.63;;;4.30;99.90;;;;;;12630262;28;20071;-84
2021/03/15 23:24:52;;;;;;;19.08;3.42;;;4.30;99.90;;;;;;12587259;28;20056;-84
2021/03/15 23:30:54;;;;;;;18.48;3.25;;;4.20;99.90;;;;;;12594129;28;20037;-85
2021/03/15 23:36:58;;;;;;;17.50;2.90;;;4.20;99.90;;;;;;12561319;28;20218;-83
2021/03/15 23:43:00;;;;;;;22.48;3.63;;;4.20;99.90;;;;;;12584947;28;20135;-84
2021/03/15 23:49:01;;;;;;;21.10;3.97;;;4.10;99.90;;;;;;12580731;28;20052;-85
2021/03/15 23:55:05;;;;;;;21.27;3.53;;;4.10;99.90;;;;;;12573993;28;20072;-84
